Airfield :
LOGIN :

Register | Disclaimer

   EN    FR    IT 

 










Legend :    VFR   Marginal VFR   IFR   Intensive IFR   Very Intensive IFR
Visi :
Ceiling :
>= 8 km
>= 3000ft
5 to 8 km
1000 to 3000 ft
1500m to 5 km
500 to 1000 ft
800 to 1500m
200 to 500 ft
< 800m
< 200 ft
Symbols :   Thunderstorms  Fog  Heavy snow  Heavy precipitations  Wind > 20 kt
SIGMETs :     Misc.  Thunderstorms  Icing  Turbulence  Mountain Waves  Volcanic Ashes







- Airport Elevation : 313 ft
- IATA code : LEH
- Download approach charts


LFOH - Le Havre Octeville

CURRENT METAR :
  • 210830Z AUTO 07004KT 030V150 CAVOK 17/11 Q1015 NOSIG

EXPIRED METARs :
  • 210800Z AUTO 09004KT 060V140 CAVOK 16/11 Q1015 NOSIG
  • 210730Z AUTO 06004KT 020V100 7000 NSC 15/11 Q1015 NOSIG
  • 210700Z AUTO VRB03KT 6000 NSC 14/11 Q1015 NOSIG
  • 210630Z AUTO 07006KT 5000 BR NSC 13/11 Q1015 NOSIG
  • 210600Z AUTO 06006KT 3700 R22/1000U BR NSC 12/10 Q1015 BECMG 9999 NSW

TAF TAF LFOH
Valid from the 21 at 06:00 until the 22 at 06:00 UTC


210500Z 2106/2206 07005KT 3000 BR NSC
BECMG 2106/2108 9999 NSW
BECMG 2110/2112 35010KT
PROB30
TEMPO 2112/2116 3000 TSRA BKN040CB
BECMG 2117/2119 VRB02KT
BECMG 2123/2202 3000 BR
PROB30 2202/2206 0200 FG VV///
ATIS : +33 2 35 54 64 93
No reported NOTAMs for that airfield.



MET'MAP, your aeronautical weather chart ! - Copyright ORBIFLY December 2007 - Disclaimer

ORBIFLY MET'MAP TEAM :

Programming & Development : Alexandra Zaïnal
Concept & Development : Baudouin d'Aumeries
Co-Development & Prog : Marc-Olivier Méhu
Technical & hardware support : Manuel Goepfert

Contact : metmap@orbifly.com




SOURCES & CREDITS :

   NOAA